Airport ICAO


07:27 UTC

14°C

Few clouds


An affordable passengers' Moving Map for your aircraft. Made for the iPad and the iPhone
More information here

EGKA Shoreham


Shoreham By Sea UNITED KINGDOM   VFR


METAR EGKA 200720Z 22001KT 9999 FEW016 14/13 Q1020 0h07min





NOTAMS

OPEN